Wetterdaten: aktuell Samstag, 22.07.2017 10:28
Datum Zeit Temperatur Bodentemp. Luftfeuchte Luftdruck Regen Wind Richtung Richtung Sonnenschein
22.07.2017 10:28 22,3 C 14,8 C 74 % 1013 hPa 0,0 l/m 7,4 km/h (2 Bft) SO22.5 125 5 min
22.07.2017 10:23 22,7 C 15,0 C 75 % 1013 hPa 0,0 l/m 5,4 km/h (2 Bft) O-SO22.5 115 4 min
22.07.2017 10:19 22,7 C 15,0 C 75 % 1013 hPa 0,0 l/m 5,4 km/h (2 Bft) S-SO22.5 150 5 min
22.07.2017 10:14 22,7 C 14,9 C 74 % 1013 hPa 0,0 l/m 5,6 km/h (2 Bft) SO45 130 6 min
22.07.2017 10:08 22,7 C 14,9 C 72 % 1013 hPa 0,0 l/m 6,1 km/h (2 Bft) SO 140 5 min
22.07.2017 10:03 22,7 C 14,9 C 75 % 1013 hPa 0,0 l/m 6,8 km/h (2 Bft) O-SO45 120 4 min
22.07.2017 09:59 22,7 C 15,1 C 75 % 1013 hPa 0,0 l/m 0,0 km/h (0 Bft) O-SO 115 6 min
22.07.2017 09:53 22,6 C 15,0 C 76 % 1013 hPa 0,0 l/m 1,1 km/h (1 Bft) O-SO 110 5 min
22.07.2017 09:48 22,3 C 14,8 C 76 % 1013 hPa 0,0 l/m 6,2 km/h (2 Bft) O-SO 110 4 min
22.07.2017 09:44 22,0 C 14,8 C 76 % 1013 hPa 0,0 l/m 8,4 km/h (2 Bft) O-NO 70 5 min
22.07.2017 09:39 22,3 C 15,0 C 85 % 1013 hPa 0,0 l/m 9,7 km/h (2 Bft) O-SO22.5 115 6 min
22.07.2017 09:33 22,1 C 15,1 C 86 % 1013 hPa 0,0 l/m 10,6 km/h (2 Bft) O-SO22.5 115 5 min
22.07.2017 09:28 21,2 C 14,9 C 92 % 1013 hPa 0,0 l/m 12,9 km/h (3 Bft) O22.5 100 4 min
22.07.2017 09:24 21,2 C 15,1 C 92 % 1013 hPa 0,0 l/m 10,1 km/h (2 Bft) O-SO22.5 110 6 min
22.07.2017 09:18 21,2 C 15,0 C 96 % 1013 hPa 0,0 l/m 9,3 km/h (2 Bft) S-SW67.5 200 5 min
22.07.2017 09:13 20,9 C 15,1 C 99 % 1013 hPa 0,0 l/m 10,6 km/h (2 Bft) O-SO22.5 115 4 min
22.07.2017 09:09 20,3 C 14,7 C 100 % 1012 hPa 0,0 l/m 8,7 km/h (2 Bft) S 170 5 min
22.07.2017 09:04 19,9 C 14,3 C 100 % 1012 hPa 0,0 l/m 8,5 km/h (2 Bft) S 170 6 min
22.07.2017 08:58 19,2 C 13,4 C 100 % 1012 hPa 0,0 l/m 9,6 km/h (2 Bft) S 170 5 min
22.07.2017 08:53 18,8 C 13,1 C 100 % 1012 hPa 0,0 l/m 9,6 km/h (2 Bft) O-SO45 120 0 min
22.07.2017 08:49 18,6 C 13,1 C 100 % 1012 hPa 0,0 l/m 13,6 km/h (3 Bft) O22.5 100 0 min
22.07.2017 08:43 18,5 C 13,0 C 100 % 1012 hPa 0,0 l/m 17,3 km/h (3 Bft) O22.5 90 0 min
22.07.2017 08:38 18,4 C 13,0 C 100 % 1012 hPa 0,0 l/m 14,5 km/h (3 Bft) O45 95 0 min
22.07.2017 08:34 18,5 C 13,0 C 100 % 1012 hPa 0,0 l/m 12,3 km/h (2 Bft) O22.5 85 0 min
22.07.2017 08:29 18,6 C 13,0 C 100 % 1012 hPa 0,0 l/m 13,0 km/h (3 Bft) O-NO45 75 0 min
22.07.2017 08:23 18,5 C 13,0 C 100 % 1012 hPa 0,0 l/m 13,6 km/h (3 Bft) O-NO22.5 75 0 min
22.07.2017 08:18 18,4 C 13,0 C 100 % 1012 hPa 0,0 l/m 10,6 km/h (2 Bft) O45 95 0 min
22.07.2017 08:14 18,3 C 13,0 C 100 % 1012 hPa 0,0 l/m 19,5 km/h (3 Bft) O22.5 90 0 min
22.07.2017 08:08 18,2 C 12,9 C 100 % 1012 hPa 0,0 l/m 14,5 km/h (3 Bft) O 90 0 min
22.07.2017 08:03 18,2 C 12,9 C 100 % 1012 hPa 0,0 l/m 9,1 km/h (2 Bft) O 90 0 min
22.07.2017 07:59 18,2 C 12,9 C 100 % 1012 hPa 0,0 l/m 6,4 km/h (2 Bft) O22.5 100 0 min
22.07.2017 07:53 18,1 C 12,8 C 100 % 1012 hPa 0,0 l/m 3,6 km/h (1 Bft) NO45 50 0 min
22.07.2017 07:48 18,0 C 12,8 C 100 % 1012 hPa 0,0 l/m 0,0 km/h (0 Bft) N-NW 340 0 min
22.07.2017 07:44 18,0 C 12,8 C 100 % 1012 hPa 0,0 l/m 0,0 km/h (0 Bft) N-NW 340 0 min
22.07.2017 07:39 17,8 C 12,7 C 100 % 1012 hPa 0,0 l/m 0,0 km/h (0 Bft) NW22.5 325 0 min
22.07.2017 07:33 17,8 C 12,8 C 100 % 1012 hPa 0,0 l/m 0,0 km/h (0 Bft) W-NW 295 0 min
22.07.2017 07:28 17,8 C 12,8 C 100 % 1012 hPa 0,0 l/m 0,0 km/h (0 Bft) W45 260 0 min
22.07.2017 07:24 17,8 C 12,8 C 100 % 1012 hPa 0,0 l/m 0,0 km/h (0 Bft) S 190 0 min
22.07.2017 07:18 17,8 C 12,8 C 100 % 1012 hPa 0,4 l/m 0,0 km/h (0 Bft) N-NW22.5 335 0 min
22.07.2017 07:13 17,8 C 12,8 C 100 % 1012 hPa 0,0 l/m 0,0 km/h (0 Bft) NW 320 0 min
22.07.2017 07:09 17,8 C 12,8 C 100 % 1012 hPa 0,0 l/m 0,0 km/h (0 Bft) NW 320 0 min
22.07.2017 07:04 17,8 C 12,7 C 100 % 1012 hPa 0,4 l/m 0,0 km/h (0 Bft) NW 320 0 min
22.07.2017 06:58 17,8 C 12,7 C 100 % 1012 hPa 0,0 l/m 0,0 km/h (0 Bft) NW 320 0 min
22.07.2017 06:53 17,7 C 12,7 C 100 % 1012 hPa 0,0 l/m 0,0 km/h (0 Bft) NW 320 0 min
22.07.2017 06:49 17,7 C 12,7 C 100 % 1012 hPa 0,4 l/m 0,0 km/h (0 Bft) W 265 0 min
22.07.2017 06:43 17,8 C 12,6 C 100 % 1012 hPa 0,0 l/m 0,0 km/h (0 Bft) W 265 0 min
22.07.2017 06:38 17,7 C 12,5 C 100 % 1012 hPa 0,4 l/m 0,0 km/h (0 Bft) W 265 0 min
22.07.2017 06:34 17,7 C 12,5 C 100 % 1012 hPa 0,0 l/m 0,0 km/h (0 Bft) W 265 0 min
22.07.2017 06:29 17,7 C 12,6 C 100 % 1012 hPa 0,4 l/m 0,0 km/h (0 Bft) W 265 0 min
_ Min-Zeit 06:03 23:58 17:39 03:43 - 11:08 - - -
Minimum _ 17,6 C 12,4 C 27 % 1010 hPa - 0,0 km/h (0 Bft) - - -
_ Max-Zeit 18:28 17:04 06:18 11:04 04:58 18:38 - - 11:14
Maximum _ 27,5 C 19,9 C 100 % 1015 hPa 1,8 l/m 39,7 km/h
N-NW (6 Bft)
- - 6 min
Durchschnitt _ 21,3 C 14,4 C 61 % 1012 hPa #14,8 l/m 5,5 km/h (2 Bft) O - #1:35 h